Time;durP1;ratioP1;P1;durP2;ratioP2;P2;SDS_P1;SDS_P2;PMS_P1;PMS_P2;Temp;Humidity;BMP_temperature;BMP_pressure;BME280_temperature;BME280_humidity;BME280_pressure;Samples;Min_cycle;Max_cycle;Signal;HPM_P1;HPM_P2
2022/05/16 00:02:05;;;;;;;168.68;83.45;;;27.80;99.90;;;;;;5074721;28;20032;-62
2022/05/16 00:04:35;;;;;;;95.57;70.80;;;27.90;99.90;;;;;;5075174;28;20033;-60
2022/05/16 00:07:02;;;;;;;89.50;68.03;;;27.90;99.90;;;;;;5075248;28;20119;-65
2022/05/16 00:09:28;;;;;;;94.90;72.80;;;27.90;99.90;;;;;;5057288;28;20029;-64
2022/05/16 00:11:55;;;;;;;102.05;76.95;;;27.90;99.90;;;;;;5056055;28;20028;-62
2022/05/16 00:14:22;;;;;;;102.32;76.00;;;27.90;99.90;;;;;;5055096;28;20112;-68
2022/05/16 00:16:48;;;;;;;92.63;70.60;;;28.00;99.90;;;;;;5063540;28;20050;-67
2022/05/16 00:19:15;;;;;;;76.18;54.03;;;28.10;99.90;;;;;;5075204;28;20051;-68
2022/05/16 00:21:42;;;;;;;70.43;54.47;;;28.10;99.90;;;;;;5075265;28;20043;-68
2022/05/16 00:24:08;;;;;;;73.45;54.30;;;28.10;99.90;;;;;;5074958;28;20067;-68
2022/05/16 00:26:35;;;;;;;82.47;54.67;;;28.10;99.90;;;;;;5073733;28;20381;-70
2022/05/16 00:29:02;;;;;;;69.10;51.90;;;28.10;99.90;;;;;;5074279;28;20100;-68
2022/05/16 00:31:29;;;;;;;82.35;56.60;;;28.20;99.90;;;;;;5074060;28;20074;-69
2022/05/16 00:33:56;;;;;;;68.10;50.55;;;28.20;99.90;;;;;;5074663;28;20377;-73
2022/05/16 00:36:23;;;;;;;71.40;49.80;;;28.10;99.90;;;;;;5074778;28;20016;-59
2022/05/16 00:38:50;;;;;;;74.22;49.25;;;28.20;99.90;;;;;;5074765;28;20024;-59
2022/05/16 00:41:17;;;;;;;68.18;45.50;;;28.20;99.90;;;;;;5074407;28;20095;-61
2022/05/16 00:43:45;;;;;;;59.20;42.75;;;28.20;99.90;;;;;;5074559;28;20358;-60
2022/05/16 00:46:13;;;;;;;58.25;42.50;;;28.40;99.90;;;;;;5073996;28;20029;-60
2022/05/16 00:48:40;;;;;;;58.50;41.15;;;28.50;99.90;;;;;;5073833;28;20064;-62
2022/05/16 00:51:13;;;;;;;54.03;40.20;;;28.60;99.90;;;;;;5074027;28;20085;-62
2022/05/16 00:53:41;;;;;;;53.97;42.35;;;28.70;99.90;;;;;;5074230;28;20039;-59
2022/05/16 00:56:08;;;;;;;59.42;44.72;;;28.80;99.90;;;;;;5071508;28;20483;-60
2022/05/16 00:58:37;;;;;;;57.33;43.22;;;28.90;99.90;;;;;;5073483;28;20039;-66
2022/05/16 01:04:47;;;;;;;59.00;47.78;;;29.00;99.90;;;;;;5072841;28;20024;-66
2022/05/16 01:06:39;;;;;;;183.05;128.70;;;29.10;99.90;;;;;;5063680;28;20045;-64
2022/05/16 01:09:06;;;;;;;204.88;148.93;;;29.20;99.90;;;;;;5069645;28;20081;-66
2022/05/16 01:11:35;;;;;;;126.38;92.28;;;29.30;99.90;;;;;;5073337;28;20012;-68
2022/05/16 01:14:02;;;;;;;80.45;57.78;;;29.40;99.90;;;;;;5073345;28;20024;-68
2022/05/16 01:16:28;;;;;;;80.75;58.45;;;29.50;99.90;;;;;;5070703;28;20043;-67
2022/05/16 01:18:55;;;;;;;68.03;54.35;;;29.60;99.90;;;;;;5071673;28;20036;-68
2022/05/16 01:21:42;;;;;;;89.70;66.63;;;29.60;99.90;;;;;;5073564;28;20383;-66
2022/05/16 01:24:16;;;;;;;99.40;71.10;;;29.70;99.90;;;;;;5073831;28;20052;-67
2022/05/16 01:26:43;;;;;;;79.18;61.97;;;29.70;99.90;;;;;;5071120;28;20540;-68
2022/05/16 01:29:10;;;;;;;101.50;79.60;;;29.90;99.90;;;;;;5072453;28;20062;-70
2022/05/16 01:31:37;;;;;;;85.28;65.50;;;30.00;99.90;;;;;;5073486;28;20089;-69
2022/05/16 01:34:04;;;;;;;97.10;74.63;;;30.00;99.90;;;;;;5073396;28;20500;-67
2022/05/16 01:36:31;;;;;;;81.53;59.78;;;30.00;99.90;;;;;;5073594;28;20029;-68
2022/05/16 01:38:58;;;;;;;76.20;52.72;;;30.10;99.90;;;;;;5073539;28;20354;-67
2022/05/16 01:41:26;;;;;;;65.18;46.95;;;30.10;99.90;;;;;;5073516;28;20489;-67
2022/05/16 01:43:56;;;;;;;57.88;46.08;;;30.10;99.90;;;;;;5073442;28;20534;-67
2022/05/16 01:46:29;;;;;;;72.38;54.00;;;30.30;99.90;;;;;;5072717;28;20469;-67
2022/05/16 01:48:56;;;;;;;64.03;48.67;;;30.30;99.90;;;;;;5073411;28;20025;-68
2022/05/16 01:51:23;;;;;;;85.05;59.00;;;30.30;99.90;;;;;;5071855;28;20025;-66
2022/05/16 01:53:50;;;;;;;74.60;57.15;;;30.40;99.90;;;;;;5073305;28;20428;-66
2022/05/16 01:56:17;;;;;;;83.35;63.35;;;30.40;99.90;;;;;;5064183;28;20024;-66
2022/05/16 01:58:45;;;;;;;74.03;55.10;;;30.50;99.90;;;;;;5055321;28;20032;-68
2022/05/16 02:01:14;;;;;;;124.28;84.43;;;30.60;99.90;;;;;;5069413;28;20033;-67
2022/05/16 02:03:44;;;;;;;128.07;95.70;;;30.60;99.90;;;;;;5073345;28;20078;-69
2022/05/16 02:06:11;;;;;;;71.75;51.38;;;30.70;99.90;;;;;;5072789;28;20036;-71
2022/05/16 02:08:38;;;;;;;122.72;88.78;;;30.70;99.90;;;;;;5071393;28;20029;-68
2022/05/16 02:11:06;;;;;;;108.10;79.65;;;30.80;99.90;;;;;;5073476;28;20024;-66
2022/05/16 02:13:35;;;;;;;95.43;60.80;;;30.80;99.90;;;;;;5073210;28;20040;-67
2022/05/16 02:16:02;;;;;;;128.40;75.60;;;30.90;99.90;;;;;;5072240;28;20058;-67
2022/05/16 02:18:29;;;;;;;90.07;53.65;;;31.00;99.90;;;;;;5073260;28;20067;-67
2022/05/16 02:24:38;;;;;;;83.43;53.53;;;31.00;99.90;;;;;;5092857;28;20080;-66
2022/05/16 02:26:30;;;;;;;49.28;40.33;;;31.20;99.90;;;;;;5085831;28;20047;-61
2022/05/16 02:28:57;;;;;;;47.95;36.92;;;31.10;99.90;;;;;;5093551;28;20055;-61
2022/05/16 02:31:23;;;;;;;56.60;43.92;;;31.20;99.90;;;;;;5073818;28;20385;-61
2022/05/16 02:33:50;;;;;;;50.53;38.30;;;31.20;99.90;;;;;;5073237;28;20472;-62
2022/05/16 02:36:17;;;;;;;59.70;41.05;;;31.30;99.90;;;;;;5073024;28;20028;-61
2022/05/16 02:38:44;;;;;;;79.00;58.92;;;31.30;99.90;;;;;;5073109;28;20389;-60
2022/05/16 02:41:11;;;;;;;123.47;90.93;;;31.40;99.90;;;;;;5072642;28;20013;-61
2022/05/16 02:43:37;;;;;;;108.88;77.53;;;31.50;99.90;;;;;;5074417;28;20020;-61
2022/05/16 02:46:04;;;;;;;55.58;42.25;;;31.50;99.90;;;;;;5055108;28;20099;-61
2022/05/16 02:48:31;;;;;;;52.25;35.80;;;31.50;99.90;;;;;;5072010;28;20497;-62
2022/05/16 02:50:57;;;;;;;80.28;66.35;;;31.50;99.90;;;;;;5068039;28;20928;-62
2022/05/16 02:53:24;;;;;;;50.95;39.92;;;31.50;99.90;;;;;;5070163;28;20109;-62
2022/05/16 02:55:51;;;;;;;43.90;35.17;;;31.50;99.90;;;;;;5073192;28;20025;-62
2022/05/16 02:58:17;;;;;;;41.33;34.50;;;31.60;99.90;;;;;;5069522;28;20367;-61
2022/05/16 03:00:44;;;;;;;49.05;34.00;;;31.60;99.90;;;;;;5072507;28;20032;-61
2022/05/16 03:03:11;;;;;;;38.47;31.92;;;31.70;99.90;;;;;;5070721;28;20055;-63
2022/05/16 03:05:39;;;;;;;39.15;30.50;;;31.80;99.90;;;;;;5069267;28;20025;-64
2022/05/16 03:08:06;;;;;;;41.22;32.15;;;31.80;99.90;;;;;;5071976;28;20024;-61
2022/05/16 03:10:33;;;;;;;43.67;32.35;;;31.90;99.90;;;;;;5072097;28;20501;-61
2022/05/16 03:13:00;;;;;;;47.97;33.05;;;32.00;99.90;;;;;;5066614;28;20060;-61
2022/05/16 03:15:30;;;;;;;48.60;31.52;;;32.00;99.90;;;;;;5072602;28;20040;-60
2022/05/16 03:17:57;;;;;;;43.05;34.78;;;32.00;99.90;;;;;;5072171;28;20499;-62
2022/05/16 03:20:24;;;;;;;41.22;32.83;;;32.00;99.90;;;;;;5071349;28;20028;-61
2022/05/16 03:22:51;;;;;;;47.90;33.53;;;32.00;99.90;;;;;;5075664;28;20035;-60
2022/05/16 03:25:18;;;;;;;52.58;38.42;;;32.20;99.90;;;;;;5069785;28;20032;-62
2022/05/16 03:27:45;;;;;;;39.70;34.40;;;32.30;99.10;;;;;;5074569;28;20355;-62
2022/05/16 03:30:12;;;;;;;44.95;35.17;;;32.20;99.80;;;;;;5075433;28;20028;-61
2022/05/16 03:32:39;;;;;;;54.22;35.15;;;32.30;99.90;;;;;;5075919;28;20021;-61
2022/05/16 03:35:08;;;;;;;45.58;35.83;;;32.40;98.90;;;;;;5075184;28;20017;-63
2022/05/16 03:37:34;;;;;;;42.08;34.45;;;32.40;98.30;;;;;;5071195;28;20029;-62
2022/05/16 03:42:48;;;;;;;119.57;89.45;;;32.50;98.80;;;;;;5069528;28;20036;-61
2022/05/16 03:45:14;;;;;;;45.95;37.42;;;32.50;98.60;;;;;;5071150;28;20455;-61
2022/05/16 03:47:41;;;;;;;46.83;37.25;;;32.50;98.30;;;;;;5077390;28;20025;-61
2022/05/16 03:50:12;;;;;;;46.33;40.50;;;32.60;97.90;;;;;;5070577;28;20094;-60
2022/05/16 03:52:39;;;;;;;51.40;38.53;;;32.60;97.90;;;;;;5074158;28;20036;-61
2022/05/16 03:55:12;;;;;;;58.58;43.33;;;32.70;98.10;;;;;;5072447;28;20024;-60
2022/05/16 03:57:40;;;;;;;44.08;33.72;;;32.70;98.00;;;;;;5071648;28;20344;-62
2022/05/16 04:00:09;;;;;;;44.03;35.65;;;32.60;97.90;;;;;;5076280;28;20029;-61
2022/05/16 04:02:39;;;;;;;46.50;37.95;;;32.70;97.80;;;;;;5074317;28;20028;-61
2022/05/16 04:05:08;;;;;;;47.45;39.13;;;32.80;97.50;;;;;;5070100;28;20031;-60
2022/05/16 04:07:36;;;;;;;47.67;41.35;;;33.00;96.90;;;;;;5075032;28;20466;-61
2022/05/16 04:10:03;;;;;;;51.70;41.38;;;33.10;96.70;;;;;;5071482;28;20034;-59
2022/05/16 04:12:30;;;;;;;65.75;52.90;;;33.10;96.90;;;;;;5072962;28;20405;-58
2022/05/16 04:14:57;;;;;;;123.50;94.47;;;33.30;96.10;;;;;;5074093;28;20033;-59
2022/05/16 04:17:24;;;;;;;86.93;63.88;;;33.40;96.20;;;;;;5072763;28;20041;-60
2022/05/16 04:19:50;;;;;;;73.43;58.20;;;33.40;96.50;;;;;;5074342;28;20024;-58
2022/05/16 04:22:18;;;;;;;154.80;126.97;;;33.50;95.90;;;;;;5074707;28;20027;-59
2022/05/16 04:24:44;;;;;;;53.00;45.30;;;33.50;95.50;;;;;;5074854;28;20044;-61
2022/05/16 04:27:12;;;;;;;54.55;46.53;;;33.60;95.20;;;;;;5069621;28;20047;-63
2022/05/16 04:29:38;;;;;;;55.30;46.30;;;33.40;95.60;;;;;;5074209;28;20024;-63
2022/05/16 04:32:06;;;;;;;60.90;44.47;;;33.30;95.30;;;;;;5073550;28;20473;-62
2022/05/16 04:34:33;;;;;;;54.85;42.83;;;33.40;94.70;;;;;;5074402;28;20028;-61
2022/05/16 04:36:59;;;;;;;48.42;41.13;;;33.30;94.90;;;;;;5071596;28;20059;-62
2022/05/16 04:39:26;;;;;;;48.13;39.50;;;33.30;95.50;;;;;;5074561;28;20009;-62
2022/05/16 04:44:39;;;;;;;54.42;43.97;;;33.40;94.80;;;;;;5072446;28;20044;-61
2022/05/16 04:47:08;;;;;;;45.40;39.30;;;33.30;95.00;;;;;;5073227;28;20017;-62
2022/05/16 04:49:36;;;;;;;45.35;37.75;;;33.30;94.40;;;;;;5073176;28;20482;-62
2022/05/16 04:52:02;;;;;;;51.50;42.00;;;33.20;94.30;;;;;;5073137;28;20542;-64
2022/05/16 04:54:29;;;;;;;49.63;42.20;;;33.20;94.60;;;;;;5074431;28;20021;-62
2022/05/16 04:56:56;;;;;;;47.85;41.03;;;33.20;93.90;;;;;;5072304;28;20063;-61
2022/05/16 04:59:24;;;;;;;54.08;42.28;;;33.30;93.90;;;;;;5074310;28;20428;-61
2022/05/16 05:01:50;;;;;;;54.53;42.47;;;33.30;94.00;;;;;;5073359;28;20306;-61
2022/05/16 05:04:17;;;;;;;49.60;40.75;;;33.20;93.50;;;;;;5073599;28;20021;-62
2022/05/16 05:06:44;;;;;;;51.42;41.90;;;33.20;93.30;;;;;;5073843;28;20108;-61
2022/05/16 05:09:11;;;;;;;47.65;40.42;;;33.30;93.60;;;;;;5074337;28;20020;-63
2022/05/16 05:14:33;;;;;;;56.75;43.42;;;33.40;93.00;;;;;;5072574;28;20028;-62
2022/05/16 05:17:02;;;;;;;48.22;42.03;;;33.40;93.50;;;;;;5073455;28;20094;-62
2022/05/16 05:19:29;;;;;;;45.10;40.17;;;33.40;93.60;;;;;;5072528;28;20499;-63
2022/05/16 05:21:57;;;;;;;47.60;41.22;;;33.40;93.10;;;;;;5073453;28;20044;-61
2022/05/16 05:24:24;;;;;;;51.05;43.42;;;33.50;93.60;;;;;;5073752;28;20025;-60
2022/05/16 05:26:51;;;;;;;49.75;42.88;;;33.60;93.10;;;;;;5073714;28;20100;-58
2022/05/16 05:29:19;;;;;;;49.75;42.40;;;33.70;92.50;;;;;;5072692;28;20032;-62
2022/05/16 05:31:47;;;;;;;48.30;42.25;;;33.80;91.30;;;;;;5071613;28;20039;-60
2022/05/16 05:34:13;;;;;;;49.58;40.90;;;33.90;91.40;;;;;;5073433;28;20102;-60
2022/05/16 05:36:41;;;;;;;48.72;41.00;;;33.90;91.40;;;;;;5073242;28;20500;-60
2022/05/16 05:39:10;;;;;;;47.42;42.08;;;33.90;90.60;;;;;;5073850;28;20043;-61
2022/05/16 05:41:36;;;;;;;47.35;40.63;;;34.00;91.50;;;;;;5073133;28;20068;-61
2022/05/16 05:44:03;;;;;;;44.35;39.75;;;34.10;90.20;;;;;;5072294;28;20020;-62
2022/05/16 05:46:38;;;;;;;49.47;41.67;;;34.20;88.70;;;;;;5073369;28;20036;-63
2022/05/16 05:49:06;;;;;;;49.63;43.17;;;34.20;90.00;;;;;;5071460;28;20273;-61
2022/05/16 05:51:33;;;;;;;47.38;41.83;;;34.30;90.60;;;;;;5073073;28;20078;-61
2022/05/16 05:53:59;;;;;;;46.60;40.10;;;34.20;90.10;;;;;;5072190;28;20032;-61
2022/05/16 05:56:27;;;;;;;53.67;43.28;;;34.10;88.00;;;;;;5071451;28;20017;-62
2022/05/16 05:58:55;;;;;;;51.55;43.40;;;33.90;89.10;;;;;;5066079;28;20437;-61
2022/05/16 06:01:22;;;;;;;52.33;45.38;;;33.90;90.00;;;;;;5072517;28;20033;-60
2022/05/16 06:03:49;;;;;;;45.50;40.17;;;33.80;88.50;;;;;;5072668;28;20024;-61
2022/05/16 06:06:16;;;;;;;47.70;42.63;;;33.80;89.40;;;;;;5070525;28;20393;-61
2022/05/16 06:08:43;;;;;;;56.00;45.08;;;33.80;88.30;;;;;;5075942;28;20025;-61
2022/05/16 06:11:10;;;;;;;49.33;41.47;;;34.00;89.20;;;;;;5072995;28;20032;-62
2022/05/16 06:13:38;;;;;;;49.88;41.28;;;33.90;88.30;;;;;;5055890;28;20123;-61
2022/05/16 06:16:08;;;;;;;50.75;41.75;;;33.90;89.00;;;;;;5072713;28;20044;-60
2022/05/16 06:18:36;;;;;;;45.47;39.35;;;33.90;89.20;;;;;;5073182;28;20029;-61
2022/05/16 06:21:03;;;;;;;48.95;37.95;;;33.80;88.70;;;;;;5072557;28;20524;-61
2022/05/16 06:23:30;;;;;;;47.47;37.70;;;33.80;89.70;;;;;;5073393;28;20017;-61
2022/05/16 06:25:58;;;;;;;40.50;35.60;;;33.80;89.80;;;;;;5072844;28;20024;-60
2022/05/16 06:28:27;;;;;;;43.13;34.92;;;33.70;89.10;;;;;;5071266;28;20048;-60
2022/05/16 06:30:56;;;;;;;42.85;35.55;;;33.80;87.70;;;;;;5071650;28;20028;-61
2022/05/16 06:33:26;;;;;;;44.55;36.05;;;34.00;89.20;;;;;;5072463;28;20040;-61
2022/05/16 06:35:53;;;;;;;42.60;37.40;;;34.30;88.30;;;;;;5073065;28;20054;-60
2022/05/16 06:38:23;;;;;;;43.50;36.13;;;34.40;86.80;;;;;;5072959;28;20032;-61
2022/05/16 06:40:50;;;;;;;38.72;31.52;;;34.50;86.70;;;;;;5072273;28;20016;-60
2022/05/16 06:43:19;;;;;;;36.20;32.30;;;34.70;84.10;;;;;;5071446;28;20077;-60
2022/05/16 06:45:46;;;;;;;35.70;31.63;;;34.70;82.70;;;;;;5071975;28;20402;-59
2022/05/16 06:48:14;;;;;;;35.60;30.17;;;34.80;82.50;;;;;;5071086;28;20044;-61
2022/05/16 06:50:42;;;;;;;41.10;32.17;;;34.90;81.40;;;;;;5069589;28;20500;-61
2022/05/16 06:53:19;;;;;;;38.53;32.30;;;35.00;83.80;;;;;;5071805;28;20048;-61
2022/05/16 06:55:46;;;;;;;36.55;30.25;;;35.00;81.90;;;;;;5070319;28;20033;-60
2022/05/16 06:58:13;;;;;;;32.83;29.15;;;35.00;79.80;;;;;;5066430;28;20044;-60
2022/05/16 07:00:39;;;;;;;39.67;33.05;;;35.00;80.40;;;;;;5074711;28;20029;-60
2022/05/16 07:03:07;;;;;;;35.50;30.30;;;35.00;80.80;;;;;;5075646;28;20070;-59
2022/05/16 07:05:34;;;;;;;40.00;32.20;;;35.10;81.00;;;;;;5075013;28;20342;-62
2022/05/16 07:08:01;;;;;;;34.60;27.92;;;35.10;79.50;;;;;;5073384;28;20029;-59
2022/05/16 07:10:28;;;;;;;39.70;30.20;;;35.00;79.70;;;;;;5074714;28;20040;-60
2022/05/16 07:12:55;;;;;;;37.13;30.55;;;35.10;79.70;;;;;;5073131;28;20028;-61
2022/05/16 07:15:22;;;;;;;35.35;28.50;;;35.10;79.70;;;;;;5074931;28;20067;-64
2022/05/16 07:17:50;;;;;;;33.22;26.83;;;35.00;77.60;;;;;;5073895;28;20032;-61
2022/05/16 07:20:18;;;;;;;29.88;26.50;;;35.00;78.60;;;;;;5074759;28;20017;-61
2022/05/16 07:22:48;;;;;;;32.42;28.95;;;35.10;78.10;;;;;;5074547;28;20444;-59
2022/05/16 07:25:18;;;;;;;30.70;26.25;;;35.10;77.30;;;;;;5074740;28;20028;-62
2022/05/16 07:27:57;;;;;;;33.40;27.20;;;35.20;76.70;;;;;;5075962;28;20515;-61
2022/05/16 07:30:26;;;;;;;32.63;27.83;;;35.30;76.60;;;;;;5075078;28;20469;-61
2022/05/16 07:32:55;;;;;;;38.42;27.02;;;35.30;74.20;;;;;;5069448;28;20161;-61
2022/05/16 07:35:26;;;;;;;35.03;29.13;;;35.10;76.10;;;;;;5077954;28;20036;-61
2022/05/16 07:37:54;;;;;;;32.22;26.92;;;35.00;77.10;;;;;;5055999;28;20024;-63
2022/05/16 07:40:24;;;;;;;29.27;25.27;;;35.10;75.90;;;;;;5071721;28;20389;-63
2022/05/16 07:42:51;;;;;;;34.42;28.02;;;35.20;77.40;;;;;;5075319;28;20396;-61
2022/05/16 07:45:18;;;;;;;31.38;28.13;;;35.30;76.90;;;;;;5075391;28;20052;-62
2022/05/16 07:47:45;;;;;;;30.65;27.35;;;35.30;76.30;;;;;;5075761;28;20032;-63
2022/05/16 07:50:13;;;;;;;35.33;28.98;;;35.30;76.80;;;;;;5071342;28;20120;-64
2022/05/16 07:52:46;;;;;;;38.78;30.17;;;35.20;78.10;;;;;;5075670;28;20036;-63
2022/05/16 07:55:14;;;;;;;33.00;27.92;;;35.20;77.50;;;;;;5075138;28;20396;-60
2022/05/16 07:57:41;;;;;;;36.20;28.42;;;35.10;76.20;;;;;;5074449;28;20025;-61
2022/05/16 08:00:08;;;;;;;47.33;31.98;;;35.10;76.30;;;;;;5053890;28;20028;-61
2022/05/16 08:02:35;;;;;;;51.75;33.35;;;35.10;77.80;;;;;;5074520;28;20444;-60
2022/05/16 08:05:02;;;;;;;43.15;30.02;;;35.10;77.70;;;;;;5072933;28;20095;-60
2022/05/16 08:07:28;;;;;;;41.83;30.88;;;35.10;76.80;;;;;;5074512;28;20036;-61
2022/05/16 08:12:33;;;;;;;43.22;31.08;;;35.20;77.00;;;;;;5074105;28;20020;-60
2022/05/16 08:15:00;;;;;;;40.85;33.47;;;35.30;79.10;;;;;;5073303;28;20032;-61
2022/05/16 08:17:31;;;;;;;34.92;30.45;;;35.10;78.90;;;;;;5073721;28;20032;-60
2022/05/16 08:19:58;;;;;;;37.58;32.10;;;35.00;78.50;;;;;;5073738;28;20111;-60
2022/05/16 08:22:35;;;;;;;42.58;31.98;;;35.00;79.10;;;;;;5074312;28;20021;-60
2022/05/16 08:25:02;;;;;;;181.68;129.75;;;34.90;80.00;;;;;;5074136;28;20031;-60
2022/05/16 08:27:29;;;;;;;43.28;36.75;;;35.10;80.50;;;;;;5071831;28;20028;-61
2022/05/16 08:29:56;;;;;;;37.58;31.90;;;35.10;79.20;;;;;;5073556;28;20040;-61
2022/05/16 08:32:24;;;;;;;153.63;128.77;;;35.10;80.00;;;;;;5075172;28;20435;-63
2022/05/16 08:34:52;;;;;;;50.95;42.30;;;35.20;80.20;;;;;;5079193;28;20036;-61
2022/05/16 08:40:01;;;;;;;37.38;30.38;;;35.30;78.10;;;;;;5074083;28;20024;-64
2022/05/16 08:42:49;;;;;;;36.08;29.88;;;35.30;77.80;;;;;;5074264;28;20024;-67
2022/05/16 08:45:21;;;;;;;32.47;29.05;;;35.30;77.10;;;;;;5074006;28;20025;-65
2022/05/16 08:47:55;;;;;;;39.65;32.67;;;35.20;76.80;;;;;;5073383;28;20082;-62
2022/05/16 08:50:35;;;;;;;33.35;29.38;;;35.30;77.10;;;;;;5074453;28;20473;-62
2022/05/16 08:53:05;;;;;;;39.35;28.55;;;35.20;76.20;;;;;;5071062;28;20473;-67
2022/05/16 08:55:34;;;;;;;32.55;28.80;;;35.10;76.90;;;;;;5071873;28;20032;-67
2022/05/16 08:58:09;;;;;;;31.77;27.90;;;35.10;77.60;;;;;;5071741;28;20029;-66
2022/05/16 09:00:48;;;;;;;42.65;29.67;;;35.10;76.30;;;;;;5070176;28;20115;-67
2022/05/16 09:03:23;;;;;;;36.05;29.10;;;35.10;76.30;;;;;;5071480;28;20020;-67
2022/05/16 09:05:57;;;;;;;37.88;28.45;;;34.90;74.80;;;;;;5073236;28;20024;-67
2022/05/16 09:08:46;;;;;;;34.55;28.13;;;34.90;76.40;;;;;;5073467;28;20040;-67
2022/05/16 09:11:32;;;;;;;34.58;29.65;;;34.90;75.40;;;;;;5055612;28;20478;-67
2022/05/16 09:14:07;;;;;;;37.15;32.15;;;34.90;75.80;;;;;;5071658;28;20461;-66
2022/05/16 09:16:49;;;;;;;36.95;31.48;;;34.80;77.30;;;;;;5071761;28;20037;-66
2022/05/16 09:19:25;;;;;;;38.38;32.67;;;34.80;77.60;;;;;;5070954;28;20500;-65
2022/05/16 09:22:02;;;;;;;42.40;33.95;;;34.80;77.40;;;;;;5069055;28;20036;-66
2022/05/16 09:24:35;;;;;;;35.97;31.42;;;34.80;77.80;;;;;;5072527;28;20024;-65
2022/05/16 09:27:13;;;;;;;39.53;32.53;;;34.80;77.00;;;;;;5076293;28;20110;-66
2022/05/16 09:29:45;;;;;;;41.58;33.88;;;34.90;77.50;;;;;;5074857;28;20108;-66
2022/05/16 09:32:30;;;;;;;41.50;32.40;;;34.90;77.00;;;;;;5052532;28;20028;-65
2022/05/16 09:34:57;;;;;;;41.03;32.90;;;34.90;76.50;;;;;;5069041;28;20039;-65
2022/05/16 09:37:24;;;;;;;58.13;41.03;;;34.90;77.30;;;;;;5079931;28;20028;-65
2022/05/16 09:39:52;;;;;;;67.70;46.80;;;34.80;79.70;;;;;;5073831;28;20102;-65
2022/05/16 09:42:20;;;;;;;53.88;45.95;;;34.30;81.60;;;;;;5072644;28;20197;-66
2022/05/16 09:44:48;;;;;;;54.10;40.80;;;34.20;82.70;;;;;;5072690;28;20573;-66
2022/05/16 09:47:19;;;;;;;46.67;37.55;;;34.20;82.30;;;;;;5071570;28;20031;-66
2022/05/16 09:50:09;;;;;;;71.33;45.73;;;34.20;83.00;;;;;;5072659;28;20032;-66
2022/05/16 09:52:45;;;;;;;72.60;45.60;;;34.00;82.40;;;;;;5072366;28;20371;-65
2022/05/16 09:55:27;;;;;;;65.07;44.47;;;33.60;83.40;;;;;;5072697;28;20032;-66
2022/05/16 09:57:59;;;;;;;47.75;36.65;;;33.10;86.20;;;;;;5071759;28;20048;-66
2022/05/16 10:00:33;;;;;;;;;;;33.00;84.20;;;;;;5072796;28;20096;-65
2022/05/16 10:03:24;;;;;;;51.33;37.47;;;32.60;83.40;;;;;;5072324;28;20376;-63
2022/05/16 10:05:52;;;;;;;73.63;48.55;;;32.50;85.50;;;;;;5069755;28;20028;-66
2022/05/16 10:08:32;;;;;;;69.18;46.67;;;32.50;88.50;;;;;;5072617;28;20025;-66
2022/05/16 10:11:04;;;;;;;66.65;47.70;;;32.40;90.10;;;;;;5071388;28;20032;-66
2022/05/16 10:13:31;;;;;;;119.40;92.50;;;32.40;90.30;;;;;;5075129;28;20103;-65
2022/05/16 10:16:01;;;;;;;65.47;48.67;;;32.40;90.50;;;;;;5072842;28;20401;-65
2022/05/16 10:18:29;;;;;;;60.92;44.45;;;32.40;90.90;;;;;;5068673;28;20028;-66
2022/05/16 10:21:02;;;;;;;52.95;42.65;;;32.30;91.30;;;;;;5072835;28;20528;-69
2022/05/16 10:23:34;;;;;;;55.83;41.40;;;31.90;91.80;;;;;;5073119;28;20025;-69
2022/05/16 10:26:09;;;;;;;44.28;35.58;;;31.60;91.70;;;;;;5073282;28;20016;-67
2022/05/16 10:28:46;;;;;;;47.92;38.38;;;31.20;91.80;;;;;;5071983;28;20043;-70
2022/05/16 10:34:25;;;;;;;55.00;39.35;;;31.20;92.20;;;;;;5076721;28;20036;-62
2022/05/16 10:36:53;;;;;;;;;;;31.30;92.60;;;;;;5073125;28;20085;-61
2022/05/16 10:39:24;;;;;;;89.97;59.53;;;31.30;91.90;;;;;;5070985;28;20321;-61
2022/05/16 10:42:05;;;;;;;88.60;59.20;;;31.30;91.50;;;;;;5075586;28;20082;-60
2022/05/16 10:44:40;;;;;;;144.50;103.93;;;31.30;90.20;;;;;;5077523;28;20451;-61
2022/05/16 10:47:11;;;;;;;93.35;65.55;;;31.30;89.80;;;;;;5071884;28;20017;-61
2022/05/16 10:49:51;;;;;;;119.43;87.88;;;31.40;89.70;;;;;;5076503;28;20028;-61
2022/05/16 10:52:29;;;;;;;88.55;68.70;;;31.30;90.30;;;;;;5076637;28;20025;-60
2022/05/16 10:54:58;;;;;;;72.20;54.00;;;31.10;91.80;;;;;;5060835;28;20048;-61
2022/05/16 10:58:04;;;;;;;63.15;46.03;;;30.90;93.50;;;;;;5077053;28;20465;-60
2022/05/16 11:01:09;;;;;;;162.48;102.07;;;30.70;93.60;;;;;;5073323;28;20032;-61
2022/05/16 11:03:48;;;;;;;59.17;42.65;;;30.70;94.60;;;;;;5059328;28;20040;-61
2022/05/16 11:06:42;;;;;;;61.25;42.92;;;30.50;95.60;;;;;;5074800;28;20048;-61
2022/05/16 11:09:22;;;;;;;81.18;49.35;;;30.40;96.60;;;;;;5014087;28;20034;-61
2022/05/16 11:11:50;;;;;;;32.42;23.63;;;30.40;96.60;;;;;;5012486;28;20177;-60
2022/05/16 11:14:32;;;;;;;33.13;23.63;;;30.20;96.00;;;;;;5009988;28;20034;-60
2022/05/16 11:17:17;;;;;;;37.28;25.85;;;29.80;96.30;;;;;;5013936;28;20038;-60
2022/05/16 11:19:57;;;;;;;33.40;22.40;;;29.70;97.40;;;;;;5013625;28;20470;-61
2022/05/16 11:22:46;;;;;;;38.42;25.48;;;29.30;98.10;;;;;;5014059;28;20037;-61
2022/05/16 11:25:27;;;;;;;101.63;64.60;;;29.10;99.30;;;;;;5010709;28;20033;-62
2022/05/16 11:28:08;;;;;;;41.92;28.20;;;28.90;99.90;;;;;;5014084;28;20030;-63
2022/05/16 11:30:55;;;;;;;49.45;30.92;;;28.90;99.90;;;;;;5014238;28;20450;-61
2022/05/16 11:33:30;;;;;;;50.97;33.75;;;28.70;99.90;;;;;;5013255;28;20041;-62
2022/05/16 11:36:05;;;;;;;54.75;33.65;;;28.70;99.90;;;;;;5007326;28;20504;-62
2022/05/16 11:38:39;;;;;;;52.70;38.20;;;28.50;99.90;;;;;;5014001;28;20052;-62
2022/05/16 11:41:36;;;;;;;40.63;28.33;;;28.30;99.90;;;;;;5013718;28;20061;-68
2022/05/16 11:44:12;;;;;;;69.93;56.58;;;28.30;99.90;;;;;;4995619;28;20116;-68
2022/05/16 11:46:53;;;;;;;40.35;31.75;;;28.30;99.90;;;;;;5010287;28;20026;-67
2022/05/16 11:49:37;;;;;;;32.57;25.53;;;28.40;99.90;;;;;;5015883;28;20030;-69
2022/05/16 11:52:20;;;;;;;35.05;29.20;;;28.20;99.90;;;;;;5026856;28;20053;-62
2022/05/16 11:54:57;;;;;;;40.15;28.85;;;28.20;99.90;;;;;;5075594;28;20017;-63
2022/05/16 12:02:51;;;;;;;37.00;27.60;;;28.70;99.90;;;;;;5072822;28;20041;-61
2022/05/16 12:05:21;;;;;;;43.03;31.23;;;28.80;99.90;;;;;;5074470;28;20103;-62
2022/05/16 12:07:57;;;;;;;45.65;31.65;;;28.90;99.90;;;;;;5073230;28;20091;-62
2022/05/16 12:10:27;;;;;;;50.17;38.00;;;28.90;99.90;;;;;;5072635;28;20116;-62
2022/05/16 12:13:17;;;;;;;68.70;42.55;;;28.70;99.90;;;;;;5075234;28;20521;-61
2022/05/16 12:15:46;;;;;;;103.57;77.97;;;28.40;99.90;;;;;;5075008;28;20078;-61
2022/05/16 12:18:30;;;;;;;97.35;78.53;;;28.30;99.90;;;;;;5073990;28;20036;-62
2022/05/16 12:20:58;;;;;;;48.47;36.83;;;28.30;99.90;;;;;;5075879;28;20070;-62
2022/05/16 12:23:56;;;;;;;38.42;30.75;;;28.40;99.90;;;;;;5074574;28;20047;-61
2022/05/16 12:26:43;;;;;;;39.65;29.02;;;28.40;99.90;;;;;;5074526;28;20531;-61
2022/05/16 12:29:10;;;;;;;40.78;30.38;;;28.10;99.90;;;;;;5073899;28;20150;-63
2022/05/16 12:31:45;;;;;;;37.10;29.83;;;28.10;99.90;;;;;;5075444;28;20035;-62
2022/05/16 12:34:13;;;;;;;47.22;28.38;;;28.30;99.90;;;;;;5075977;28;20099;-61
2022/05/16 12:36:40;;;;;;;105.95;26.30;;;28.20;99.90;;;;;;5075383;28;20032;-61
2022/05/16 12:39:17;;;;;;;27.13;15.40;;;27.90;99.90;;;;;;5057910;28;20389;-61
2022/05/16 12:42:01;;;;;;;21.42;10.32;;;27.60;99.90;;;;;;5075713;28;20074;-62
2022/05/16 12:44:37;;;;;;;16.38;9.63;;;27.20;99.90;;;;;;5075648;28;20020;-60
2022/05/16 12:47:07;;;;;;;18.85;8.45;;;27.00;99.90;;;;;;5074410;28;20028;-60
2022/05/16 12:49:46;;;;;;;27.63;10.60;;;26.80;99.90;;;;;;5075162;28;20104;-61
2022/05/16 12:52:24;;;;;;;23.60;9.45;;;26.70;99.90;;;;;;5075712;28;20029;-60
2022/05/16 12:55:07;;;;;;;20.27;10.07;;;26.40;99.90;;;;;;5075227;28;20021;-62
2022/05/16 12:57:45;;;;;;;20.58;11.85;;;26.30;99.90;;;;;;5068857;28;20056;-64
2022/05/16 13:00:17;;;;;;;18.95;8.32;;;26.00;99.90;;;;;;5075464;28;20029;-61
2022/05/16 13:02:48;;;;;;;49.35;34.13;;;25.90;99.90;;;;;;5074514;28;20473;-61
2022/05/16 13:05:33;;;;;;;27.65;15.20;;;26.00;99.90;;;;;;5074924;28;20021;-59
2022/05/16 13:08:15;;;;;;;36.17;27.02;;;26.00;99.90;;;;;;5074364;28;20036;-60
2022/05/16 13:10:48;;;;;;;32.53;22.40;;;26.00;99.90;;;;;;5072969;28;20066;-60
2022/05/16 13:13:56;;;;;;;15.05;8.52;;;26.10;99.90;;;;;;5073753;28;20280;-62